createdAt,value
2018-09-30T00:00:13.333Z,1007.42
2018-09-30T00:01:23.389Z,1007.4
2018-09-30T00:02:33.465Z,1007.41
2018-09-30T00:03:43.564Z,1007.34
2018-09-30T00:04:53.663Z,1007.35
2018-09-30T00:06:03.726Z,1007.27
2018-09-30T00:07:13.528Z,1007.25
2018-09-30T00:08:23.604Z,1007.24
2018-09-30T00:09:33.464Z,1007.24
2018-09-30T00:10:43.545Z,1007.22
2018-09-30T00:11:53.666Z,1007.25
2018-09-30T00:13:03.508Z,1007.27
2018-09-30T00:14:13.593Z,1007.26
2018-09-30T00:15:23.657Z,1007.27
2018-09-30T00:16:33.475Z,1007.25
2018-09-30T00:17:43.542Z,1007.27
2018-09-30T00:18:53.602Z,1007.28
2018-09-30T00:20:05.519Z,1007.23
2018-09-30T00:21:15.640Z,1007.26
2018-09-30T00:22:25.758Z,1007.26
2018-09-30T00:23:35.831Z,1007.28
2018-09-30T00:24:45.624Z,1007.23
2018-09-30T00:25:55.684Z,1007.24
2018-09-30T00:27:06.051Z,1007.22
2018-09-30T00:28:15.840Z,1007.23
2018-09-30T00:29:25.721Z,1007.16
2018-09-30T00:30:35.796Z,1007.16
2018-09-30T00:31:45.325Z,1007.17
2018-09-30T00:32:55.135Z,1007.17
2018-09-30T00:34:04.966Z,1007.14
2018-09-30T00:35:14.768Z,1007.1
2018-09-30T00:36:24.927Z,1007.13
2018-09-30T00:37:35.121Z,1007.11
2018-09-30T00:38:44.970Z,1007.1
2018-09-30T00:39:54.786Z,1007.11
2018-09-30T00:41:04.849Z,1007.08
2018-09-30T00:42:14.942Z,1007.07
2018-09-30T00:43:24.740Z,1007.01
2018-09-30T00:44:34.799Z,1006.99
2018-09-30T00:45:44.618Z,1007.03
2018-09-30T00:46:54.681Z,1007.05
2018-09-30T00:48:04.752Z,1007
2018-09-30T00:49:14.820Z,1006.98
2018-09-30T00:50:24.892Z,1007
2018-09-30T00:51:34.697Z,1007
2018-09-30T00:52:44.230Z,1006.96
2018-09-30T00:53:54.302Z,1006.99
2018-09-30T00:55:04.376Z,1007.01
2018-09-30T00:56:14.449Z,1006.99
2018-09-30T00:57:24.527Z,1006.97
2018-09-30T00:58:34.334Z,1006.99
2018-09-30T00:59:44.396Z,1006.99
2018-09-30T01:00:54.461Z,1006.92
2018-09-30T01:02:04.532Z,1006.93
2018-09-30T01:03:14.607Z,1006.86
2018-09-30T01:04:24.750Z,1006.8
2018-09-30T01:05:34.815Z,1006.82
2018-09-30T01:06:44.624Z,1006.76
2018-09-30T01:07:54.695Z,1006.74
2018-09-30T01:09:04.774Z,1006.77
2018-09-30T01:10:14.585Z,1006.71
2018-09-30T01:11:24.377Z,1006.72
2018-09-30T01:12:34.463Z,1006.71
2018-09-30T01:13:44.567Z,1006.67
2018-09-30T01:14:54.631Z,1006.74
2018-09-30T01:16:04.684Z,1006.68
2018-09-30T01:17:14.490Z,1006.67
2018-09-30T01:18:24.543Z,1006.6
2018-09-30T01:19:34.394Z,1006.61
2018-09-30T01:20:44.465Z,1006.59
2018-09-30T01:21:54.277Z,1006.62
2018-09-30T01:23:04.855Z,1006.65
2018-09-30T01:24:16.372Z,1006.7
2018-09-30T01:25:26.186Z,1006.63
2018-09-30T01:26:36.246Z,1006.68
2018-09-30T01:27:46.304Z,1006.72
2018-09-30T01:28:56.355Z,1006.69
2018-09-30T01:30:08.818Z,1006.64
2018-09-30T01:31:18.671Z,1006.66
2018-09-30T01:32:28.478Z,1006.66
2018-09-30T01:33:38.546Z,1006.67
2018-09-30T01:34:48.345Z,1006.69
2018-09-30T01:35:58.411Z,1006.65
2018-09-30T01:37:08.520Z,1006.67
2018-09-30T01:38:18.330Z,1006.63
2018-09-30T01:39:28.393Z,1006.69
2018-09-30T01:40:38.190Z,1006.69
2018-09-30T01:41:48.238Z,1006.68
2018-09-30T01:42:58.433Z,1006.65
2018-09-30T01:44:10.386Z,1006.64
2018-09-30T01:45:20.212Z,1006.6
2018-09-30T01:46:30.278Z,1006.58
2018-09-30T01:47:40.401Z,1006.61
2018-09-30T01:48:50.217Z,1006.59
2018-09-30T01:50:04.144Z,1006.57
2018-09-30T01:51:14.225Z,1006.56
2018-09-30T01:52:24.301Z,1006.52
2018-09-30T01:53:34.109Z,1006.56
2018-09-30T01:54:43.911Z,1006.55
2018-09-30T01:55:53.977Z,1006.5
2018-09-30T01:57:03.779Z,1006.47
2018-09-30T01:58:13.852Z,1006.44
2018-09-30T01:59:23.902Z,1006.46
2018-09-30T02:00:33.959Z,1006.47
2018-09-30T02:01:44.016Z,1006.47
2018-09-30T02:02:54.081Z,1006.47
2018-09-30T02:04:04.143Z,1006.47
2018-09-30T02:05:14.229Z,1006.52
2018-09-30T02:06:23.761Z,1006.49
2018-09-30T02:07:33.828Z,1006.52
2018-09-30T02:08:43.906Z,1006.47
2018-09-30T02:09:53.983Z,1006.48
2018-09-30T02:11:03.792Z,1006.45
2018-09-30T02:12:13.862Z,1006.41
2018-09-30T02:13:23.701Z,1006.45
2018-09-30T02:14:33.795Z,1006.41
2018-09-30T02:15:43.077Z,1006.42
2018-09-30T02:16:53.137Z,1006.39
2018-09-30T02:18:03.563Z,1006.4
2018-09-30T02:19:13.642Z,1006.38
2018-09-30T02:20:23.705Z,1006.42
2018-09-30T02:21:33.784Z,1006.4
2018-09-30T02:22:43.839Z,1006.38
2018-09-30T02:23:53.633Z,1006.37
2018-09-30T02:25:03.704Z,1006.38
2018-09-30T02:26:13.512Z,1006.32
2018-09-30T02:27:23.577Z,1006.34
2018-09-30T02:28:33.706Z,1006.3
2018-09-30T02:29:43.767Z,1006.3
2018-09-30T02:30:53.568Z,1006.3
2018-09-30T02:32:03.646Z,1006.23
2018-09-30T02:33:13.693Z,1006.24
2018-09-30T02:34:23.506Z,1006.19
2018-09-30T02:35:33.292Z,1006.21
2018-09-30T02:36:43.382Z,1006.18
2018-09-30T02:37:53.454Z,1006.14
2018-09-30T02:39:04.571Z,1006.14
2018-09-30T02:40:14.654Z,1006.14
2018-09-30T02:41:24.725Z,1006.15
2018-09-30T02:42:34.805Z,1006.12
2018-09-30T02:43:44.624Z,1006.16
2018-09-30T02:44:54.724Z,1006.18
2018-09-30T02:46:04.782Z,1006.15
2018-09-30T02:47:14.835Z,1006.16
2018-09-30T02:48:25.000Z,1006.1
2018-09-30T02:49:35.063Z,1006.12
2018-09-30T02:50:45.160Z,1006.08
2018-09-30T02:51:55.240Z,1006.04
2018-09-30T02:53:05.323Z,1006.03
2018-09-30T02:54:15.244Z,1006.02
2018-09-30T02:55:25.325Z,1005.96
2018-09-30T02:56:35.399Z,1005.97
2018-09-30T02:57:45.480Z,1005.92
2018-09-30T02:58:55.278Z,1005.98
2018-09-30T03:00:05.337Z,1006
2018-09-30T03:01:14.966Z,1005.93
2018-09-30T03:02:25.034Z,1005.93
